createdAt,value
2022-09-26T00:01:38.216Z,100942.09
2022-09-26T00:04:15.800Z,100931.75
2022-09-26T00:06:43.560Z,100936.91
2022-09-26T00:09:10.524Z,100919.66
2022-09-26T00:11:37.482Z,100933.94
2022-09-26T00:14:09.160Z,100922.34
2022-09-26T00:16:36.161Z,100920.63
2022-09-26T00:19:05.810Z,100918.00
2022-09-26T00:21:33.233Z,100917.69
2022-09-26T00:24:01.898Z,100917.56
2022-09-26T00:26:32.181Z,100914.38
2022-09-26T00:29:04.483Z,100913.41
2022-09-26T00:31:35.650Z,100914.88
2022-09-26T00:34:05.728Z,100901.97
2022-09-26T00:36:38.090Z,100897.03
2022-09-26T00:39:08.482Z,100885.63
2022-09-26T00:41:37.188Z,100877.88
2022-09-26T00:44:43.298Z,100868.97
2022-09-26T00:47:28.608Z,100859.31
2022-09-26T00:50:06.242Z,100852.28
2022-09-26T00:52:42.664Z,100856.09
2022-09-26T00:55:14.237Z,100848.25
2022-09-26T00:57:59.883Z,100845.63
2022-09-26T01:00:27.556Z,100839.03
2022-09-26T01:02:54.706Z,100828.66
2022-09-26T01:05:25.757Z,100820.19
2022-09-26T01:07:56.618Z,100808.34
2022-09-26T01:10:24.626Z,100806.28
2022-09-26T01:12:52.710Z,100790.84
2022-09-26T01:15:19.750Z,100777.00
2022-09-26T01:17:50.607Z,100770.41
2022-09-26T01:20:28.423Z,100763.75
2022-09-26T01:23:25.822Z,100761.50
2022-09-26T01:26:11.578Z,100764.38
2022-09-26T01:28:56.737Z,100761.28
2022-09-26T01:32:14.470Z,100748.66
2022-09-26T01:35:16.737Z,100745.25
2022-09-26T01:38:40.616Z,100743.75
2022-09-26T01:41:44.369Z,100744.13
2022-09-26T01:44:52.841Z,100744.50
2022-09-26T01:48:00.867Z,100738.31
2022-09-26T01:50:48.854Z,100730.84
2022-09-26T01:53:47.274Z,100723.22
2022-09-26T01:56:21.249Z,100714.59
2022-09-26T01:58:57.387Z,100701.19
2022-09-26T02:01:32.657Z,100690.97
2022-09-26T02:04:11.332Z,100689.97
2022-09-26T02:06:51.719Z,100691.13
2022-09-26T02:09:39.929Z,100700.28
2022-09-26T02:12:12.163Z,100700.28
2022-09-26T02:14:41.902Z,100696.19
2022-09-26T02:17:14.067Z,100695.53
2022-09-26T02:19:50.488Z,100683.09
2022-09-26T02:22:20.514Z,100674.84
2022-09-26T02:24:47.418Z,100669.84
2022-09-26T02:27:14.384Z,100662.22
2022-09-26T02:29:41.501Z,100649.94
2022-09-26T02:32:16.286Z,100640.47
2022-09-26T02:34:47.261Z,100633.38
2022-09-26T02:37:17.724Z,100625.97
2022-09-26T02:39:46.927Z,100621.34
2022-09-26T02:42:38.635Z,100608.78
2022-09-26T02:45:37.866Z,100589.91
2022-09-26T02:48:25.786Z,100576.31
2022-09-26T02:51:07.651Z,100567.59
2022-09-26T02:54:16.947Z,100568.28
2022-09-26T02:57:23.470Z,100572.00
2022-09-26T03:00:10.990Z,100562.69
2022-09-26T03:03:04.111Z,100548.78
2022-09-26T03:05:33.331Z,100546.75
2022-09-26T03:08:19.033Z,100537.41
2022-09-26T03:10:50.309Z,100536.31
2022-09-26T03:13:18.918Z,100527.44
2022-09-26T03:15:51.835Z,100525.09
2022-09-26T03:18:28.882Z,100528.56
2022-09-26T03:20:57.422Z,100511.75
2022-09-26T03:23:26.914Z,100510.78
2022-09-26T03:26:10.758Z,100509.19
2022-09-26T03:28:38.305Z,100488.31
2022-09-26T03:31:05.860Z,100500.34
2022-09-26T03:33:32.936Z,100498.59
2022-09-26T03:36:00.587Z,100491.84
2022-09-26T03:38:28.180Z,100490.63
2022-09-26T03:40:58.554Z,100488.56
2022-09-26T03:43:26.050Z,100478.88
2022-09-26T03:45:53.015Z,100477.16
2022-09-26T03:48:20.228Z,100468.22
2022-09-26T03:50:47.280Z,100475.69
2022-09-26T03:53:14.562Z,100462.75
2022-09-26T03:55:41.479Z,100465.13
2022-09-26T03:58:08.397Z,100465.94
2022-09-26T04:00:35.425Z,100455.56
2022-09-26T04:03:03.343Z,100449.47
2022-09-26T04:05:30.372Z,100444.88
2022-09-26T04:08:00.199Z,100435.13
2022-09-26T04:10:27.778Z,100420.50
2022-09-26T04:12:54.718Z,100417.66
2022-09-26T04:15:21.606Z,100396.50
2022-09-26T04:17:48.472Z,100394.88
2022-09-26T04:20:15.803Z,100387.59
2022-09-26T04:22:42.688Z,100377.53
2022-09-26T04:25:10.309Z,100380.47
2022-09-26T04:27:38.094Z,100374.13
2022-09-26T04:30:06.192Z,100375.97
2022-09-26T04:32:33.138Z,100360.63
2022-09-26T04:35:00.058Z,100358.91
2022-09-26T04:37:27.201Z,100352.16
2022-09-26T04:39:54.181Z,100340.03
2022-09-26T04:42:21.431Z,100333.66
2022-09-26T04:44:48.370Z,100335.56
2022-09-26T04:47:15.327Z,100326.47
2022-09-26T04:49:43.038Z,100327.03
2022-09-26T04:52:09.938Z,100311.03
2022-09-26T04:54:37.460Z,100304.84
2022-09-26T04:57:05.797Z,100296.03
2022-09-26T04:59:32.957Z,100296.22
2022-09-26T05:02:00.861Z,100304.06
2022-09-26T05:04:28.025Z,100291.59
2022-09-26T05:06:57.910Z,100292.50
2022-09-26T05:09:25.429Z,100290.47
2022-09-26T05:11:52.712Z,100288.50
2022-09-26T05:14:19.695Z,100280.97
2022-09-26T05:16:47.468Z,100272.09
2022-09-26T05:19:14.605Z,100276.91
2022-09-26T05:21:43.232Z,100273.97
2022-09-26T05:24:28.992Z,100269.06
2022-09-26T05:26:56.020Z,100266.00
2022-09-26T05:29:23.079Z,100264.22
2022-09-26T05:31:51.560Z,100258.09
2022-09-26T05:34:20.049Z,100254.66
2022-09-26T05:36:47.720Z,100249.66
2022-09-26T05:39:33.139Z,100254.63
2022-09-26T05:42:00.361Z,100247.50
2022-09-26T05:44:28.335Z,100244.47
2022-09-26T05:46:57.332Z,100238.78
2022-09-26T05:49:25.179Z,100229.00
2022-09-26T05:51:53.887Z,100232.03
2022-09-26T05:54:21.228Z,100221.72
2022-09-26T05:56:48.300Z,100217.22
2022-09-26T05:59:15.418Z,100205.94
2022-09-26T06:01:42.630Z,100205.34
2022-09-26T06:04:10.556Z,100201.56
2022-09-26T06:06:37.560Z,100192.16
2022-09-26T06:09:07.243Z,100186.72
2022-09-26T06:11:34.260Z,100182.81
2022-09-26T06:14:01.339Z,100171.66
2022-09-26T06:16:29.242Z,100175.50
2022-09-26T06:18:56.232Z,100173.47
2022-09-26T06:21:23.706Z,100151.44
2022-09-26T06:23:50.919Z,100150.50
2022-09-26T06:26:24.376Z,100145.63
2022-09-26T06:29:00.481Z,100147.25
2022-09-26T06:31:28.822Z,100137.50
2022-09-26T06:33:56.301Z,100112.91
2022-09-26T06:36:24.465Z,100129.19
2022-09-26T06:38:52.093Z,100113.69
2022-09-26T06:41:19.647Z,100115.34
2022-09-26T06:43:53.076Z,100106.19
2022-09-26T06:46:23.289Z,100088.31
2022-09-26T06:48:52.977Z,100095.22
2022-09-26T06:51:22.924Z,100084.47
2022-09-26T06:54:00.583Z,100076.56
2022-09-26T06:56:27.603Z,100068.78
2022-09-26T06:59:04.269Z,100073.56
2022-09-26T07:01:37.900Z,100070.44
2022-09-26T07:04:10.777Z,100065.75
2022-09-26T07:06:38.204Z,100071.03
2022-09-26T07:09:09.770Z,100060.00
2022-09-26T07:12:02.749Z,100045.28
2022-09-26T07:14:25.861Z,100039.81
2022-09-26T07:16:52.962Z,100037.81
2022-09-26T07:19:20.160Z,100036.09
2022-09-26T07:21:48.531Z,100037.16
2022-09-26T07:24:15.433Z,100026.03
2022-09-26T07:26:42.600Z,100014.16
2022-09-26T07:29:10.430Z,100006.13
2022-09-26T07:31:37.344Z,100010.75
2022-09-26T07:34:04.772Z,100009.28
2022-09-26T07:36:31.782Z,99993.94
2022-09-26T07:38:58.813Z,99992.56
2022-09-26T07:41:25.856Z,99987.75
2022-09-26T07:44:46.163Z,99992.59
2022-09-26T07:46:57.978Z,99999.31
2022-09-26T07:49:43.421Z,99986.50
2022-09-26T07:52:14.082Z,99977.69
2022-09-26T07:54:42.435Z,99970.59
2022-09-26T07:57:09.348Z,99967.28
2022-09-26T07:59:36.814Z,99962.16
2022-09-26T08:02:06.774Z,99945.28
2022-09-26T08:04:33.866Z,99938.22
2022-09-26T08:07:00.951Z,99954.13
2022-09-26T08:09:28.531Z,99944.13
2022-09-26T08:11:56.500Z,99956.25
2022-09-26T08:14:23.417Z,99940.81
2022-09-26T08:16:55.801Z,99939.50
2022-09-26T08:19:23.054Z,99930.56
2022-09-26T08:21:50.097Z,99927.75
2022-09-26T08:24:17.182Z,99924.38
2022-09-26T08:26:44.810Z,99913.91
2022-09-26T08:29:12.405Z,99913.47
2022-09-26T08:31:39.790Z,99912.47
2022-09-26T08:34:08.117Z,99912.25
2022-09-26T08:36:37.599Z,99917.81
2022-09-26T08:39:05.306Z,99919.06
2022-09-26T08:41:56.374Z,99918.69
2022-09-26T08:44:54.088Z,99910.53
2022-09-26T08:47:43.008Z,99918.28
2022-09-26T08:50:35.494Z,99901.91
2022-09-26T08:53:13.563Z,99895.25
2022-09-26T08:55:45.204Z,99900.56
2022-09-26T08:58:29.039Z,99902.78
2022-09-26T09:01:05.268Z,99904.28
2022-09-26T09:03:37.997Z,99888.75
2022-09-26T09:06:11.648Z,99889.22
2022-09-26T09:08:44.289Z,99898.00
2022-09-26T09:11:22.873Z,99882.81
2022-09-26T09:14:29.518Z,99881.28
2022-09-26T09:17:48.393Z,99877.00
2022-09-26T09:20:34.373Z,99867.09
2022-09-26T09:23:31.506Z,99863.16
2022-09-26T09:29:33.297Z,99873.75
2022-09-26T09:32:03.840Z,99863.31
2022-09-26T09:34:39.241Z,99866.75
2022-09-26T09:37:19.584Z,99863.66
2022-09-26T09:39:50.115Z,99870.28
2022-09-26T09:42:36.494Z,99863.84
2022-09-26T09:45:15.643Z,99863.03
2022-09-26T09:47:42.742Z,99858.06
2022-09-26T09:50:20.044Z,99844.72
2022-09-26T09:53:23.426Z,99836.84
2022-09-26T09:56:16.530Z,99843.59
2022-09-26T09:59:23.806Z,99841.31
2022-09-26T10:02:12.353Z,99847.84
2022-09-26T10:04:46.800Z,99856.34
2022-09-26T10:07:13.797Z,99853.06
2022-09-26T10:09:43.914Z,99857.06
2022-09-26T10:12:19.050Z,99857.22
2022-09-26T10:15:21.637Z,99868.53
2022-09-26T10:18:24.697Z,99869.59
2022-09-26T10:20:57.403Z,99856.00
2022-09-26T10:23:40.513Z,99860.88
2022-09-26T10:26:10.814Z,99848.94
2022-09-26T10:28:50.186Z,99828.78
2022-09-26T10:31:29.996Z,99835.28
2022-09-26T10:34:05.642Z,99840.84
2022-09-26T10:36:37.160Z,99834.47
2022-09-26T10:39:39.697Z,99832.16
2022-09-26T10:42:27.531Z,99820.47
2022-09-26T10:45:00.158Z,99809.66
2022-09-26T10:47:29.888Z,99800.28
2022-09-26T10:50:03.430Z,99804.09
2022-09-26T10:52:38.760Z,99788.56
2022-09-26T10:55:46.310Z,99791.75
2022-09-26T10:58:36.396Z,99769.75
2022-09-26T11:01:05.880Z,99748.31
2022-09-26T11:03:45.876Z,99734.78
2022-09-26T11:06:34.898Z,99761.16
2022-09-26T11:09:04.094Z,99765.53
2022-09-26T11:11:39.132Z,99775.19
2022-09-26T11:14:08.680Z,99776.94
2022-09-26T11:16:54.040Z,99766.56
2022-09-26T11:19:35.907Z,99775.34
2022-09-26T11:22:42.578Z,99767.03
2022-09-26T11:25:24.214Z,99761.84
2022-09-26T11:28:05.141Z,99761.59
2022-09-26T11:30:40.866Z,99758.75
2022-09-26T11:33:13.584Z,99748.78
2022-09-26T11:36:18.099Z,99744.75
2022-09-26T11:38:56.634Z,99724.38
2022-09-26T11:41:55.882Z,99727.63
2022-09-26T11:45:11.307Z,99726.22
2022-09-26T11:48:06.754Z,99722.03
2022-09-26T11:51:01.395Z,99721.81
2022-09-26T11:53:31.231Z,99730.47
2022-09-26T11:56:41.485Z,99718.19
2022-09-26T11:59:53.738Z,99722.78
2022-09-26T12:02:51.548Z,99741.81
2022-09-26T12:05:36.670Z,99723.59
2022-09-26T12:08:32.016Z,99730.25
2022-09-26T12:11:26.915Z,99711.91
2022-09-26T12:14:02.483Z,99722.59
2022-09-26T12:16:52.445Z,99731.38
2022-09-26T12:19:51.071Z,99729.16
2022-09-26T12:22:49.974Z,99716.25
2022-09-26T12:25:47.917Z,99708.53
2022-09-26T12:28:50.785Z,99711.22
2022-09-26T12:31:43.932Z,99719.31
2022-09-26T12:34:41.752Z,99704.31
2022-09-26T12:37:32.721Z,99710.72
2022-09-26T12:40:31.184Z,99706.38
2022-09-26T12:43:19.267Z,99708.22
2022-09-26T12:46:30.014Z,99704.16
2022-09-26T12:49:42.084Z,99686.25
2022-09-26T12:52:39.741Z,99696.13
2022-09-26T12:55:49.123Z,99688.22
2022-09-26T12:58:38.774Z,99685.06
2022-09-26T13:01:36.005Z,99689.97
2022-09-26T13:04:53.081Z,99689.41
2022-09-26T13:08:15.801Z,99685.94
2022-09-26T13:11:13.188Z,99679.81
2022-09-26T13:14:21.181Z,99689.19
2022-09-26T13:17:10.155Z,99695.75
2022-09-26T13:19:51.505Z,99698.09
2022-09-26T13:22:41.490Z,99675.19
2022-09-26T13:25:23.710Z,99672.13
2022-09-26T13:28:07.177Z,99666.78
2022-09-26T13:30:48.298Z,99673.59
2022-09-26T13:33:25.486Z,99674.38
2022-09-26T13:35:59.813Z,99682.03
2022-09-26T13:38:53.965Z,99669.00
2022-09-26T13:41:48.746Z,99675.47
2022-09-26T13:44:44.707Z,99679.31
2022-09-26T13:47:41.330Z,99671.66
2022-09-26T13:50:14.992Z,99682.44
2022-09-26T13:53:06.764Z,99671.97
2022-09-26T13:55:34.441Z,99668.81
2022-09-26T13:58:08.155Z,99666.75
2022-09-26T14:00:41.605Z,99663.16
2022-09-26T14:03:16.305Z,99663.78
2022-09-26T14:05:43.696Z,99659.91
2022-09-26T14:08:44.733Z,99652.72
2022-09-26T14:11:30.605Z,99656.16
2022-09-26T14:14:16.924Z,99656.75
2022-09-26T14:17:42.251Z,99655.38
2022-09-26T14:20:33.964Z,99651.84
2022-09-26T14:23:03.109Z,99653.13
2022-09-26T14:25:45.339Z,99642.22
2022-09-26T14:28:34.948Z,99648.81
2022-09-26T14:31:37.222Z,99641.78
2022-09-26T14:34:22.745Z,99633.44
2022-09-26T14:36:53.098Z,99638.06
2022-09-26T14:39:28.633Z,99632.97
2022-09-26T14:41:58.549Z,99641.59
2022-09-26T14:44:34.991Z,99633.50
2022-09-26T14:47:13.403Z,99635.03
2022-09-26T14:49:40.765Z,99630.84
2022-09-26T14:52:18.967Z,99631.16
2022-09-26T14:54:47.563Z,99628.88
2022-09-26T14:57:32.075Z,99635.44
2022-09-26T15:00:01.258Z,99643.63
2022-09-26T15:02:40.472Z,99633.84
2022-09-26T15:05:10.156Z,99629.00
2022-09-26T15:07:46.068Z,99622.63
2022-09-26T15:10:41.235Z,99624.34
2022-09-26T15:13:18.723Z,99630.06
2022-09-26T15:15:57.885Z,99622.66
2022-09-26T15:18:27.747Z,99621.19
2022-09-26T15:21:23.322Z,99617.84
2022-09-26T15:23:53.665Z,99605.66
2022-09-26T15:26:27.859Z,99612.91
2022-09-26T15:28:56.811Z,99618.22
2022-09-26T15:31:41.379Z,99610.81
2022-09-26T15:34:17.946Z,99615.28
2022-09-26T15:36:54.300Z,99605.16
2022-09-26T15:39:33.445Z,99600.09
2022-09-26T15:42:45.684Z,99606.94
2022-09-26T15:45:47.914Z,99607.34
2022-09-26T15:48:20.699Z,99597.78
2022-09-26T15:51:07.505Z,99592.94
2022-09-26T15:53:34.379Z,99598.66
2022-09-26T15:56:12.934Z,99593.66
2022-09-26T15:58:39.764Z,99609.31
2022-09-26T16:01:08.577Z,99599.50
2022-09-26T16:03:45.439Z,99603.69
2022-09-26T16:06:24.041Z,99600.31
2022-09-26T16:09:00.521Z,99619.31
2022-09-26T16:11:28.578Z,99630.81
2022-09-26T16:13:56.713Z,99633.22
2022-09-26T16:16:34.530Z,99637.94
2022-09-26T16:19:04.086Z,99640.19
2022-09-26T16:21:36.365Z,99638.44
2022-09-26T16:24:34.150Z,99640.66
2022-09-26T16:27:01.172Z,99629.97
2022-09-26T16:29:38.887Z,99640.69
2022-09-26T16:32:06.215Z,99642.25
2022-09-26T16:34:33.267Z,99646.06
2022-09-26T16:37:00.481Z,99647.13
2022-09-26T16:39:31.047Z,99649.88
2022-09-26T16:42:07.406Z,99650.56
2022-09-26T16:44:40.391Z,99647.06
2022-09-26T16:47:43.162Z,99660.72
2022-09-26T16:50:26.663Z,99648.31
2022-09-26T16:52:54.936Z,99656.97
2022-09-26T16:55:23.050Z,99653.56
2022-09-26T16:57:59.168Z,99651.69
2022-09-26T17:00:52.214Z,99652.94
2022-09-26T17:03:25.256Z,99653.59
2022-09-26T17:05:55.689Z,99654.41
2022-09-26T17:08:25.446Z,99650.13
2022-09-26T17:10:56.289Z,99671.00
2022-09-26T17:13:26.394Z,99671.44
2022-09-26T17:16:01.159Z,99673.56
2022-09-26T17:18:33.943Z,99706.38
2022-09-26T17:21:07.456Z,99705.03
2022-09-26T17:23:41.071Z,99702.66
2022-09-26T17:26:19.505Z,99698.81
2022-09-26T17:28:46.873Z,99698.81
2022-09-26T17:31:20.912Z,99702.59
2022-09-26T17:33:52.719Z,99695.56
2022-09-26T17:36:24.892Z,99686.56
2022-09-26T17:38:51.950Z,99691.44
2022-09-26T17:41:19.031Z,99698.84
2022-09-26T17:43:46.230Z,99690.09
2022-09-26T17:46:16.261Z,99687.19
2022-09-26T17:48:44.734Z,99682.19
2022-09-26T17:51:14.125Z,99683.31
2022-09-26T17:53:50.195Z,99680.47
2022-09-26T17:56:19.304Z,99684.78
2022-09-26T17:58:49.041Z,99684.34
2022-09-26T18:01:31.671Z,99682.56
2022-09-26T18:04:03.966Z,99689.59
2022-09-26T18:06:33.375Z,99696.03
2022-09-26T18:09:05.783Z,99690.88
2022-09-26T18:11:34.653Z,99696.56
2022-09-26T18:14:07.377Z,99697.69
2022-09-26T18:16:34.447Z,99707.56
2022-09-26T18:19:06.734Z,99712.75
2022-09-26T18:21:35.007Z,99712.81
2022-09-26T18:24:06.438Z,99720.16
2022-09-26T18:26:47.400Z,99726.00
2022-09-26T18:29:37.858Z,99732.66
2022-09-26T18:32:24.551Z,99733.69
2022-09-26T18:34:51.836Z,99737.47
2022-09-26T18:37:18.768Z,99737.97
2022-09-26T18:39:54.342Z,99741.94
2022-09-26T18:42:24.432Z,99740.38
2022-09-26T18:45:04.253Z,99737.19
2022-09-26T18:47:38.895Z,99732.56
2022-09-26T18:50:07.092Z,99731.06
2022-09-26T18:52:34.776Z,99733.41
2022-09-26T18:55:20.237Z,99743.09
2022-09-26T18:58:08.550Z,99737.56
2022-09-26T19:00:36.345Z,99743.66
2022-09-26T19:03:04.769Z,99749.88
2022-09-26T19:05:32.344Z,99755.09
2022-09-26T19:07:59.436Z,99758.19
2022-09-26T19:10:27.102Z,99760.19
2022-09-26T19:12:56.578Z,99758.09
2022-09-26T19:15:23.728Z,99765.00
2022-09-26T19:17:51.048Z,99759.44
2022-09-26T19:20:18.009Z,99761.06
2022-09-26T19:22:45.029Z,99762.38
2022-09-26T19:25:12.014Z,99752.31
2022-09-26T19:27:48.790Z,99765.22
2022-09-26T19:30:21.557Z,99767.22
2022-09-26T19:32:52.316Z,99772.81
2022-09-26T19:35:22.142Z,99775.94
2022-09-26T19:37:49.288Z,99779.53
2022-09-26T19:40:19.472Z,99780.34
2022-09-26T19:42:46.586Z,99788.94
2022-09-26T19:45:15.234Z,99793.47
2022-09-26T19:47:47.514Z,99793.44
2022-09-26T19:50:25.979Z,99793.78
2022-09-26T19:52:56.088Z,99797.75
2022-09-26T19:55:27.541Z,99799.94
2022-09-26T19:57:57.990Z,99810.31
2022-09-26T20:00:26.310Z,99810.56
2022-09-26T20:02:54.564Z,99814.19
2022-09-26T20:05:25.043Z,99808.66
2022-09-26T20:07:52.474Z,99811.25
2022-09-26T20:10:28.070Z,99813.19
2022-09-26T20:12:55.507Z,99819.09
2022-09-26T20:15:22.545Z,99818.44
2022-09-26T20:17:50.908Z,99814.41
2022-09-26T20:20:23.787Z,99809.34
2022-09-26T20:22:53.498Z,99799.88
2022-09-26T20:25:31.013Z,99818.03
2022-09-26T20:28:03.408Z,99806.94
2022-09-26T20:30:49.310Z,99817.50
2022-09-26T20:33:17.300Z,99821.22
2022-09-26T20:35:47.901Z,99823.50
2022-09-26T20:38:38.444Z,99824.41
2022-09-26T20:41:24.635Z,99812.69
2022-09-26T20:44:01.866Z,99826.97
2022-09-26T20:46:34.478Z,99825.78
2022-09-26T20:49:05.874Z,99824.06
2022-09-26T20:51:36.010Z,99820.59
2022-09-26T20:54:03.695Z,99818.56
2022-09-26T20:56:33.923Z,99825.34
2022-09-26T20:59:00.906Z,99821.53
2022-09-26T21:01:28.813Z,99832.41
2022-09-26T21:03:56.993Z,99824.25
2022-09-26T21:06:30.590Z,99833.03
2022-09-26T21:09:01.324Z,99825.69
2022-09-26T21:11:28.333Z,99831.56
2022-09-26T21:13:55.596Z,99828.00
2022-09-26T21:16:22.867Z,99834.28
2022-09-26T21:18:52.281Z,99838.34
2022-09-26T21:21:29.579Z,99828.59
2022-09-26T21:23:59.103Z,99828.44
2022-09-26T21:26:28.760Z,99819.09
2022-09-26T21:28:59.543Z,99825.50
2022-09-26T21:31:31.854Z,99834.88
2022-09-26T21:34:00.363Z,99841.91
2022-09-26T21:36:35.292Z,99841.66
2022-09-26T21:39:03.127Z,99838.56
2022-09-26T21:41:30.469Z,99838.84
2022-09-26T21:44:12.857Z,99833.28
2022-09-26T21:46:45.909Z,99838.63
2022-09-26T21:49:15.291Z,99840.19
2022-09-26T21:51:44.801Z,99843.75
2022-09-26T21:54:28.051Z,99844.91
2022-09-26T21:57:06.927Z,99834.31
2022-09-26T21:59:39.095Z,99832.84
2022-09-26T22:02:12.186Z,99829.06
2022-09-26T22:04:42.534Z,99826.97
2022-09-26T22:07:09.539Z,99819.53
2022-09-26T22:09:38.207Z,99821.66
2022-09-26T22:12:07.694Z,99810.56
2022-09-26T22:14:34.616Z,99822.84
2022-09-26T22:17:01.917Z,99818.16
2022-09-26T22:19:33.304Z,99819.47
2022-09-26T22:22:05.098Z,99818.63
2022-09-26T22:24:32.936Z,99837.47
2022-09-26T22:26:59.918Z,99845.03
2022-09-26T22:29:27.485Z,99852.16
2022-09-26T22:31:54.421Z,99834.72
2022-09-26T22:34:26.444Z,99833.50
2022-09-26T22:36:53.507Z,99832.38
2022-09-26T22:39:20.525Z,99835.44
2022-09-26T22:41:52.350Z,99819.88
2022-09-26T22:44:19.676Z,99821.34
2022-09-26T22:46:46.732Z,99817.28
2022-09-26T22:49:13.761Z,99818.88
2022-09-26T22:51:41.412Z,99826.28
2022-09-26T22:54:08.389Z,99827.59
2022-09-26T22:56:35.310Z,99827.81
2022-09-26T22:59:03.269Z,99816.47
2022-09-26T23:01:30.468Z,99823.56
2022-09-26T23:03:58.899Z,99821.50
2022-09-26T23:06:35.113Z,99816.66
2022-09-26T23:09:02.097Z,99817.47
2022-09-26T23:11:31.409Z,99822.50
2022-09-26T23:13:58.377Z,99819.59
2022-09-26T23:16:28.853Z,99821.09
2022-09-26T23:18:59.384Z,99814.41
2022-09-26T23:21:27.948Z,99810.97
2022-09-26T23:23:57.448Z,99805.91
2022-09-26T23:26:31.937Z,99807.53
2022-09-26T23:29:00.143Z,99808.94
2022-09-26T23:31:33.813Z,99808.16
2022-09-26T23:34:07.065Z,99815.03
2022-09-26T23:36:36.569Z,99811.41
2022-09-26T23:39:04.213Z,99806.50
2022-09-26T23:41:31.153Z,99808.75
2022-09-26T23:43:58.191Z,99813.78
2022-09-26T23:46:31.422Z,99813.44
2022-09-26T23:49:07.184Z,99813.59
2022-09-26T23:51:34.211Z,99818.47
2022-09-26T23:54:03.901Z,99817.16
2022-09-26T23:56:30.870Z,99810.16
2022-09-26T23:58:57.909Z,99815.63
